Aviation Digital Data Service (ADDS)

Output produced by METARs form (0557 UTC 08 December 2016)
found at http://aviationweather.gov/adds/metars/
 
KCAR 080527Z 0806/0906 22005KT P6SM BKN045 
     FM080700 22005KT P6SM BKN040 
     FM081200 22005KT P6SM BKN015 
     FM081700 22006KT P6SM BKN025 
     FM082000 21006KT P6SM VCSH BKN035